createdAt,value
2022-08-17T00:00:18.250Z,100.00
2022-08-17T00:03:13.688Z,100.00
2022-08-17T00:05:44.471Z,100.00
2022-08-17T00:08:14.715Z,100.00
2022-08-17T00:10:46.101Z,100.00
2022-08-17T00:13:17.590Z,100.00
2022-08-17T00:15:45.440Z,100.00
2022-08-17T00:18:58.207Z,100.00
2022-08-17T00:21:04.870Z,100.00
2022-08-17T00:23:39.142Z,100.00
2022-08-17T00:26:43.477Z,100.00
2022-08-17T00:29:06.256Z,100.00
2022-08-17T00:31:35.545Z,100.00
2022-08-17T00:34:03.977Z,100.00
2022-08-17T00:36:31.923Z,100.00
2022-08-17T00:38:59.738Z,100.00
2022-08-17T00:41:30.997Z,100.00
2022-08-17T00:44:02.876Z,100.00
2022-08-17T00:46:33.194Z,100.00
2022-08-17T00:49:01.006Z,100.00
2022-08-17T00:51:33.582Z,100.00
2022-08-17T00:54:12.058Z,100.00
2022-08-17T00:56:45.556Z,100.00
2022-08-17T00:59:17.961Z,100.00
2022-08-17T01:01:46.439Z,100.00
2022-08-17T01:04:15.055Z,100.00
2022-08-17T01:06:46.909Z,100.00
2022-08-17T01:09:15.527Z,100.00
2022-08-17T01:11:46.570Z,100.00
2022-08-17T01:14:14.563Z,100.00
2022-08-17T01:16:42.370Z,100.00
2022-08-17T01:19:16.161Z,100.00
2022-08-17T01:21:50.761Z,100.00
2022-08-17T01:24:20.209Z,100.00
2022-08-17T01:26:48.618Z,100.00
2022-08-17T01:29:17.527Z,100.00
2022-08-17T01:31:47.982Z,100.00
2022-08-17T01:34:17.629Z,100.00
2022-08-17T01:36:47.196Z,100.00
2022-08-17T01:39:23.059Z,100.00
2022-08-17T01:41:52.837Z,100.00
2022-08-17T01:44:21.550Z,100.00
2022-08-17T01:46:49.357Z,100.00
2022-08-17T01:49:17.107Z,100.00
2022-08-17T01:51:44.851Z,100.00
2022-08-17T01:54:19.604Z,100.00
2022-08-17T01:56:51.734Z,100.00
2022-08-17T01:59:20.748Z,100.00
2022-08-17T02:01:48.954Z,100.00
2022-08-17T02:04:17.311Z,100.00
2022-08-17T02:06:53.350Z,100.00
2022-08-17T02:09:24.105Z,100.00
2022-08-17T02:11:55.188Z,100.00
2022-08-17T02:14:25.081Z,100.00
2022-08-17T02:16:53.756Z,100.00
2022-08-17T02:19:22.268Z,100.00
2022-08-17T02:21:52.592Z,100.00
2022-08-17T02:24:59.900Z,100.00
2022-08-17T02:27:13.645Z,100.00
2022-08-17T02:29:41.433Z,100.00
2022-08-17T02:32:20.767Z,100.00
2022-08-17T02:34:55.092Z,100.00
2022-08-17T02:37:22.898Z,100.00
2022-08-17T02:39:50.751Z,100.00
2022-08-17T02:42:19.882Z,100.00
2022-08-17T02:44:47.976Z,100.00
2022-08-17T02:47:15.716Z,100.00
2022-08-17T02:49:54.119Z,100.00
2022-08-17T02:52:43.442Z,100.00
2022-08-17T02:55:14.220Z,100.00
2022-08-17T02:57:43.441Z,100.00
2022-08-17T03:00:14.648Z,100.00
2022-08-17T03:02:44.011Z,100.00
2022-08-17T03:05:15.106Z,100.00
2022-08-17T03:07:43.047Z,100.00
2022-08-17T03:10:12.512Z,100.00
2022-08-17T03:12:43.271Z,100.00
2022-08-17T03:15:16.359Z,100.00
2022-08-17T03:17:44.546Z,100.00
2022-08-17T03:20:13.907Z,100.00
2022-08-17T03:22:43.358Z,100.00
2022-08-17T03:25:21.420Z,100.00
2022-08-17T03:27:51.414Z,100.00
2022-08-17T03:30:22.415Z,100.00
2022-08-17T03:32:54.728Z,100.00
2022-08-17T03:35:25.527Z,100.00
2022-08-17T03:38:00.217Z,100.00
2022-08-17T03:40:55.130Z,100.00
2022-08-17T03:43:19.367Z,100.00
2022-08-17T03:46:06.290Z,100.00
2022-08-17T03:49:11.331Z,100.00
2022-08-17T03:51:56.789Z,100.00
2022-08-17T03:54:42.014Z,100.00
2022-08-17T03:57:11.750Z,100.00
2022-08-17T03:59:40.565Z,100.00
2022-08-17T04:02:14.353Z,100.00
2022-08-17T04:04:42.166Z,100.00
2022-08-17T04:07:10.374Z,100.00
2022-08-17T04:09:38.163Z,100.00
2022-08-17T04:12:06.637Z,100.00
2022-08-17T04:14:36.686Z,100.00
2022-08-17T04:17:24.761Z,100.00
2022-08-17T04:19:52.951Z,100.00
2022-08-17T04:22:32.537Z,100.00
2022-08-17T04:25:08.617Z,100.00
2022-08-17T04:27:36.846Z,100.00
2022-08-17T04:30:07.641Z,100.00
2022-08-17T04:33:09.893Z,100.00
2022-08-17T04:35:41.178Z,100.00
2022-08-17T04:38:10.814Z,100.00
2022-08-17T04:40:56.604Z,100.00
2022-08-17T04:43:25.902Z,100.00
2022-08-17T04:45:56.625Z,100.00
2022-08-17T04:48:35.500Z,100.00
2022-08-17T04:51:09.758Z,100.00
2022-08-17T04:53:38.443Z,100.00
2022-08-17T04:56:06.747Z,100.00
2022-08-17T04:58:35.092Z,100.00
2022-08-17T05:01:02.885Z,100.00
2022-08-17T05:03:32.140Z,100.00
2022-08-17T05:05:59.923Z,100.00
2022-08-17T05:08:27.773Z,100.00
2022-08-17T05:10:55.909Z,100.00
2022-08-17T05:13:26.824Z,100.00
2022-08-17T05:15:58.195Z,100.00
2022-08-17T05:18:26.393Z,100.00
2022-08-17T05:20:56.018Z,100.00
2022-08-17T05:23:26.189Z,100.00
2022-08-17T05:25:56.323Z,100.00
2022-08-17T05:28:27.487Z,100.00
2022-08-17T05:30:57.276Z,100.00
2022-08-17T05:33:27.751Z,100.00
2022-08-17T05:35:59.003Z,100.00
2022-08-17T05:38:28.901Z,100.00
2022-08-17T05:41:08.031Z,100.00
2022-08-17T05:43:38.587Z,100.00
2022-08-17T05:46:11.897Z,100.00
2022-08-17T05:48:45.476Z,100.00
2022-08-17T05:51:28.839Z,100.00
2022-08-17T05:54:08.058Z,100.00
2022-08-17T05:57:04.228Z,100.00
2022-08-17T05:59:43.146Z,100.00
2022-08-17T06:02:20.331Z,100.00
2022-08-17T06:05:06.542Z,100.00
2022-08-17T06:07:46.082Z,100.00
2022-08-17T06:10:19.116Z,100.00
2022-08-17T06:13:01.465Z,100.00
2022-08-17T06:15:33.665Z,100.00
2022-08-17T06:18:05.374Z,100.00
2022-08-17T06:20:41.104Z,100.00
2022-08-17T06:23:14.271Z,100.00
2022-08-17T06:25:47.321Z,100.00
2022-08-17T06:28:21.876Z,100.00
2022-08-17T06:30:59.407Z,100.00
2022-08-17T06:33:37.103Z,100.00
2022-08-17T06:36:19.146Z,100.00
2022-08-17T06:38:56.578Z,100.00
2022-08-17T06:41:31.458Z,100.00
2022-08-17T06:44:10.932Z,100.00
2022-08-17T06:46:42.480Z,100.00
2022-08-17T06:49:21.742Z,100.00
2022-08-17T06:51:54.694Z,100.00
2022-08-17T06:54:34.930Z,100.00
2022-08-17T06:57:14.528Z,100.00
2022-08-17T06:59:55.843Z,100.00
2022-08-17T07:02:52.414Z,100.00
2022-08-17T07:05:23.384Z,100.00
2022-08-17T07:08:04.543Z,100.00
2022-08-17T07:10:44.392Z,100.00
2022-08-17T07:13:30.697Z,100.00
2022-08-17T07:16:08.609Z,100.00
2022-08-17T07:18:36.369Z,100.00
2022-08-17T07:21:22.874Z,100.00
2022-08-17T07:24:04.336Z,100.00
2022-08-17T07:26:33.541Z,100.00
2022-08-17T07:29:02.574Z,100.00
2022-08-17T07:31:33.490Z,100.00
2022-08-17T07:34:06.804Z,100.00
2022-08-17T07:36:35.248Z,100.00
2022-08-17T07:39:04.890Z,100.00
2022-08-17T07:41:57.476Z,97.28
2022-08-17T07:44:27.731Z,94.05
2022-08-17T07:47:13.612Z,94.67
2022-08-17T07:49:41.949Z,89.21
2022-08-17T07:52:24.245Z,89.71
2022-08-17T07:55:00.524Z,89.55
2022-08-17T07:57:36.466Z,87.73
2022-08-17T08:00:16.274Z,85.87
2022-08-17T08:02:47.926Z,83.59
2022-08-17T08:05:48.606Z,81.14
2022-08-17T08:08:28.235Z,83.09
2022-08-17T08:11:03.745Z,79.74
2022-08-17T08:13:33.295Z,76.52
2022-08-17T08:16:24.408Z,75.82
2022-08-17T08:18:57.365Z,74.54
2022-08-17T08:21:44.138Z,71.31
2022-08-17T08:24:31.260Z,73.22
2022-08-17T08:27:11.098Z,72.35
2022-08-17T08:29:49.988Z,70.99
2022-08-17T08:32:25.193Z,70.75
2022-08-17T08:35:03.656Z,69.35
2022-08-17T08:37:44.475Z,67.43
2022-08-17T08:40:30.324Z,70.20
2022-08-17T08:43:04.452Z,71.30
2022-08-17T08:45:46.189Z,68.74
2022-08-17T08:48:53.026Z,69.20
2022-08-17T08:51:27.664Z,67.38
2022-08-17T08:54:04.599Z,68.40
2022-08-17T08:56:38.587Z,68.72
2022-08-17T08:59:18.985Z,69.17
2022-08-17T09:01:59.772Z,67.32
2022-08-17T09:05:12.891Z,66.73
2022-08-17T09:07:44.848Z,65.10
2022-08-17T09:10:21.099Z,65.59
2022-08-17T09:13:09.368Z,64.63
2022-08-17T09:15:44.027Z,64.00
2022-08-17T09:18:59.983Z,63.85
2022-08-17T09:21:15.439Z,63.08
2022-08-17T09:23:59.657Z,62.44
2022-08-17T09:26:32.370Z,61.56
2022-08-17T09:29:07.279Z,62.71
2022-08-17T09:31:48.766Z,59.89
2022-08-17T09:34:32.112Z,60.04
2022-08-17T09:37:15.037Z,58.44
2022-08-17T09:39:48.054Z,58.08
2022-08-17T09:42:22.723Z,57.72
2022-08-17T09:44:57.440Z,58.18
2022-08-17T09:47:31.677Z,56.65
2022-08-17T09:50:07.109Z,55.92
2022-08-17T09:52:34.738Z,54.98
2022-08-17T09:55:02.844Z,55.66
2022-08-17T09:57:44.921Z,54.90
2022-08-17T10:00:20.537Z,54.52
2022-08-17T10:03:18.076Z,53.92
2022-08-17T10:05:56.286Z,53.68
2022-08-17T10:08:33.824Z,53.50
2022-08-17T10:11:15.225Z,52.91
2022-08-17T10:13:52.998Z,53.35
2022-08-17T10:16:28.469Z,53.11
2022-08-17T10:19:06.302Z,54.09
2022-08-17T10:22:00.913Z,52.63
2022-08-17T10:25:21.727Z,51.97
2022-08-17T10:27:44.942Z,51.56
2022-08-17T10:30:18.169Z,50.92
2022-08-17T10:32:49.682Z,49.96
2022-08-17T10:35:27.653Z,49.75
2022-08-17T10:38:24.530Z,49.43
2022-08-17T10:40:57.400Z,49.99
2022-08-17T10:43:38.398Z,48.76
2022-08-17T10:46:30.216Z,47.83
2022-08-17T10:49:22.878Z,46.15
2022-08-17T10:51:54.308Z,47.28
2022-08-17T10:54:45.406Z,47.77
2022-08-17T10:57:36.602Z,46.74
2022-08-17T11:00:12.878Z,46.40
2022-08-17T11:02:45.732Z,45.79
2022-08-17T11:05:43.786Z,45.76
2022-08-17T11:08:33.755Z,45.38
2022-08-17T11:11:47.452Z,45.80
2022-08-17T11:14:26.625Z,44.66
2022-08-17T11:17:13.082Z,43.73
2022-08-17T11:19:57.820Z,43.99
2022-08-17T11:23:03.803Z,44.55
2022-08-17T11:25:39.493Z,44.58
2022-08-17T11:28:15.259Z,44.53
2022-08-17T11:30:53.796Z,45.44
2022-08-17T11:33:58.072Z,45.50
2022-08-17T11:36:52.579Z,45.62
2022-08-17T11:39:37.791Z,46.26
2022-08-17T11:42:17.859Z,45.99
2022-08-17T11:44:54.331Z,45.00
2022-08-17T11:48:09.047Z,45.14
2022-08-17T11:51:06.094Z,45.22
2022-08-17T11:56:59.936Z,45.35
2022-08-17T11:59:59.061Z,44.41
2022-08-17T12:02:48.248Z,44.56
2022-08-17T12:05:40.767Z,44.30
2022-08-17T12:08:15.887Z,45.52
2022-08-17T12:10:55.343Z,44.22
2022-08-17T12:13:30.509Z,43.67
2022-08-17T12:16:09.926Z,42.58
2022-08-17T12:18:39.779Z,43.05
2022-08-17T12:21:20.665Z,43.72
2022-08-17T12:23:56.990Z,42.59
2022-08-17T12:26:30.319Z,42.56
2022-08-17T12:29:01.361Z,43.41
2022-08-17T12:31:35.441Z,42.10
2022-08-17T12:34:04.382Z,41.97
2022-08-17T12:36:33.932Z,42.10
2022-08-17T12:39:13.786Z,41.74
2022-08-17T12:41:45.071Z,42.34
2022-08-17T12:44:15.759Z,41.51
2022-08-17T12:46:52.281Z,40.47
2022-08-17T12:49:30.666Z,41.21
2022-08-17T12:52:09.393Z,41.52
2022-08-17T12:54:57.070Z,41.03
2022-08-17T12:57:29.202Z,39.91
2022-08-17T13:00:00.189Z,39.64
2022-08-17T13:02:45.082Z,39.23
2022-08-17T13:05:25.150Z,39.06
2022-08-17T13:07:54.518Z,40.13
2022-08-17T13:10:32.133Z,39.15
2022-08-17T13:13:04.880Z,39.39
2022-08-17T13:15:38.328Z,38.55
2022-08-17T13:18:39.485Z,39.13
2022-08-17T13:21:12.115Z,39.54
2022-08-17T13:23:39.935Z,38.73
2022-08-17T13:26:17.546Z,38.85
2022-08-17T13:28:49.638Z,39.23
2022-08-17T13:31:32.288Z,37.81
2022-08-17T13:34:18.174Z,38.04
2022-08-17T13:36:48.773Z,38.44
2022-08-17T13:39:21.389Z,39.02
2022-08-17T13:41:50.866Z,39.43
2022-08-17T13:44:31.896Z,39.38
2022-08-17T13:47:00.662Z,38.34
2022-08-17T13:49:48.260Z,38.39
2022-08-17T13:52:37.844Z,37.68
2022-08-17T13:55:16.069Z,37.66
2022-08-17T13:57:47.023Z,38.11
2022-08-17T14:00:19.767Z,37.67
2022-08-17T14:02:47.481Z,38.16
2022-08-17T14:05:16.830Z,37.86
2022-08-17T14:07:44.719Z,37.67
2022-08-17T14:10:17.280Z,37.78
2022-08-17T14:12:46.251Z,37.60
2022-08-17T14:15:16.656Z,38.36
2022-08-17T14:17:44.427Z,38.15
2022-08-17T14:20:13.705Z,38.05
2022-08-17T14:22:47.213Z,37.60
2022-08-17T14:25:17.588Z,38.28
2022-08-17T14:27:52.083Z,37.70
2022-08-17T14:30:23.735Z,37.93
2022-08-17T14:32:52.023Z,38.27
2022-08-17T14:35:22.350Z,37.86
2022-08-17T14:37:51.876Z,37.64
2022-08-17T14:40:24.798Z,37.18
2022-08-17T14:42:55.141Z,37.17
2022-08-17T14:45:29.628Z,37.09
2022-08-17T14:48:01.956Z,37.65
2022-08-17T14:50:29.703Z,37.59
2022-08-17T14:53:01.345Z,36.51
2022-08-17T14:55:29.821Z,36.87
2022-08-17T14:57:57.772Z,36.71
2022-08-17T15:00:26.057Z,37.25
2022-08-17T15:02:56.583Z,37.09
2022-08-17T15:05:27.498Z,36.29
2022-08-17T15:07:55.732Z,37.48
2022-08-17T15:10:26.041Z,35.93
2022-08-17T15:12:53.868Z,35.47
2022-08-17T15:15:22.241Z,36.12
2022-08-17T15:17:51.562Z,35.38
2022-08-17T15:20:21.708Z,34.97
2022-08-17T15:22:50.551Z,35.82
2022-08-17T15:25:22.095Z,34.92
2022-08-17T15:27:51.357Z,34.84
2022-08-17T15:30:19.323Z,34.35
2022-08-17T15:32:54.415Z,34.63
2022-08-17T15:35:28.250Z,33.79
2022-08-17T15:37:58.212Z,33.22
2022-08-17T15:40:26.121Z,32.87
2022-08-17T15:42:55.314Z,32.36
2022-08-17T15:45:26.960Z,31.85
2022-08-17T15:47:54.927Z,32.42
2022-08-17T15:50:22.764Z,33.06
2022-08-17T15:52:57.490Z,35.34
2022-08-17T15:55:26.737Z,36.27
2022-08-17T15:57:55.847Z,36.55
2022-08-17T16:00:24.721Z,36.65
2022-08-17T16:03:15.422Z,38.09
2022-08-17T16:05:41.069Z,36.67
2022-08-17T16:08:10.909Z,37.31
2022-08-17T16:10:39.008Z,37.48
2022-08-17T16:13:17.358Z,39.15
2022-08-17T16:15:51.088Z,38.20
2022-08-17T16:18:28.225Z,38.54
2022-08-17T16:20:56.276Z,38.82
2022-08-17T16:23:24.340Z,38.92
2022-08-17T16:25:53.534Z,38.95
2022-08-17T16:28:36.421Z,38.73
2022-08-17T16:31:08.009Z,39.48
2022-08-17T16:33:39.332Z,39.56
2022-08-17T16:36:08.525Z,39.54
2022-08-17T16:38:36.794Z,39.20
2022-08-17T16:41:05.712Z,39.62
2022-08-17T16:43:35.587Z,40.52
2022-08-17T16:46:03.694Z,40.49
2022-08-17T16:48:31.995Z,40.20
2022-08-17T16:51:04.439Z,41.41
2022-08-17T16:53:32.618Z,40.83
2022-08-17T16:56:00.408Z,41.40
2022-08-17T16:58:28.274Z,41.74
2022-08-17T17:00:59.413Z,41.00
2022-08-17T17:03:29.184Z,41.24
2022-08-17T17:06:09.833Z,41.24
2022-08-17T17:08:44.896Z,41.46
2022-08-17T17:11:15.607Z,41.58
2022-08-17T17:13:47.957Z,41.89
2022-08-17T17:16:21.775Z,43.02
2022-08-17T17:19:04.565Z,44.11
2022-08-17T17:21:42.401Z,43.54
2022-08-17T17:24:17.553Z,43.05
2022-08-17T17:27:07.366Z,44.39
2022-08-17T17:29:47.710Z,44.13
2022-08-17T17:32:22.540Z,44.80
2022-08-17T17:34:56.525Z,45.80
2022-08-17T17:37:32.331Z,46.12
2022-08-17T17:40:04.978Z,45.03
2022-08-17T17:42:33.601Z,45.73
2022-08-17T17:45:08.712Z,46.10
2022-08-17T17:47:38.324Z,46.95
2022-08-17T17:50:08.417Z,46.58
2022-08-17T17:52:47.412Z,47.07
2022-08-17T17:55:34.333Z,47.44
2022-08-17T17:58:13.732Z,50.04
2022-08-17T18:00:49.577Z,49.56
2022-08-17T18:03:43.451Z,50.58
2022-08-17T18:06:26.873Z,50.31
2022-08-17T18:09:08.677Z,50.27
2022-08-17T18:11:58.938Z,51.72
2022-08-17T18:14:42.188Z,53.20
2022-08-17T18:17:11.976Z,54.10
2022-08-17T18:19:41.505Z,55.35
2022-08-17T18:22:14.545Z,55.42
2022-08-17T18:24:44.220Z,58.07
2022-08-17T18:27:21.615Z,58.56
2022-08-17T18:29:51.102Z,60.85
2022-08-17T18:32:34.161Z,62.02
2022-08-17T18:35:27.889Z,68.33
2022-08-17T18:38:00.399Z,71.44
2022-08-17T18:40:35.453Z,74.25
2022-08-17T18:43:08.598Z,77.60
2022-08-17T18:45:41.038Z,83.41
2022-08-17T18:48:29.821Z,83.17
2022-08-17T18:51:21.086Z,85.52
2022-08-17T18:54:18.437Z,91.36
2022-08-17T18:56:52.108Z,91.70
2022-08-17T18:59:29.258Z,95.08
2022-08-17T19:02:34.520Z,98.67
2022-08-17T19:05:13.359Z,100.00
2022-08-17T19:07:45.228Z,100.00
2022-08-17T19:10:20.638Z,100.00
2022-08-17T19:12:52.819Z,100.00
2022-08-17T19:15:27.962Z,100.00
2022-08-17T19:18:01.754Z,100.00
2022-08-17T19:20:33.166Z,100.00
2022-08-17T19:23:09.772Z,100.00
2022-08-17T19:25:44.071Z,100.00
2022-08-17T19:28:22.327Z,100.00
2022-08-17T19:30:55.755Z,100.00
2022-08-17T19:33:23.845Z,100.00
2022-08-17T19:36:00.616Z,100.00
2022-08-17T19:38:41.497Z,100.00
2022-08-17T19:41:18.543Z,100.00
2022-08-17T19:44:00.285Z,100.00
2022-08-17T19:46:36.912Z,100.00
2022-08-17T19:49:17.078Z,100.00
2022-08-17T19:51:52.260Z,100.00
2022-08-17T19:54:31.011Z,100.00
2022-08-17T19:57:10.511Z,100.00
2022-08-17T19:59:50.224Z,100.00
2022-08-17T20:02:29.409Z,100.00
2022-08-17T20:05:01.535Z,100.00
2022-08-17T20:07:35.685Z,100.00
2022-08-17T20:10:09.433Z,100.00
2022-08-17T20:12:41.074Z,100.00
2022-08-17T20:15:12.316Z,100.00
2022-08-17T20:17:43.349Z,100.00
2022-08-17T20:20:23.357Z,100.00
2022-08-17T20:22:55.741Z,100.00
2022-08-17T20:25:32.157Z,100.00
2022-08-17T20:28:06.305Z,100.00
2022-08-17T20:30:38.978Z,100.00
2022-08-17T20:33:12.500Z,100.00
2022-08-17T20:36:00.527Z,100.00
2022-08-17T20:38:41.465Z,100.00
2022-08-17T20:41:16.698Z,100.00
2022-08-17T20:43:52.233Z,100.00
2022-08-17T20:46:31.444Z,100.00
2022-08-17T20:49:14.988Z,100.00
2022-08-17T20:52:01.657Z,100.00
2022-08-17T20:54:47.593Z,100.00
2022-08-17T20:57:47.368Z,100.00
2022-08-17T21:00:42.446Z,100.00
2022-08-17T21:03:50.301Z,100.00
2022-08-17T21:06:22.672Z,100.00
2022-08-17T21:08:58.408Z,100.00
2022-08-17T21:12:03.924Z,100.00
2022-08-17T21:14:59.765Z,100.00
2022-08-17T21:17:59.234Z,100.00
2022-08-17T21:20:32.965Z,100.00
2022-08-17T21:23:27.617Z,100.00
2022-08-17T21:26:19.892Z,100.00
2022-08-17T21:29:17.923Z,100.00
2022-08-17T21:32:24.578Z,100.00
2022-08-17T21:35:29.953Z,100.00
2022-08-17T21:38:03.919Z,100.00
2022-08-17T21:40:34.057Z,100.00
2022-08-17T21:43:17.628Z,100.00
2022-08-17T21:45:56.687Z,100.00
2022-08-17T21:48:27.340Z,100.00
2022-08-17T21:51:03.689Z,100.00
2022-08-17T21:53:38.728Z,100.00
2022-08-17T21:56:07.937Z,100.00
2022-08-17T21:58:40.280Z,100.00
2022-08-17T22:01:23.650Z,100.00
2022-08-17T22:04:08.570Z,100.00
2022-08-17T22:06:39.666Z,100.00
2022-08-17T22:09:15.947Z,100.00
2022-08-17T22:11:53.255Z,100.00
2022-08-17T22:14:22.475Z,100.00
2022-08-17T22:17:07.365Z,100.00
2022-08-17T22:19:38.233Z,100.00
2022-08-17T22:22:09.014Z,100.00
2022-08-17T22:24:36.985Z,100.00
2022-08-17T22:27:11.405Z,100.00
2022-08-17T22:29:57.537Z,100.00
2022-08-17T22:32:42.451Z,100.00
2022-08-17T22:35:28.422Z,100.00
2022-08-17T22:37:56.303Z,100.00
2022-08-17T22:40:30.471Z,100.00
2022-08-17T22:42:59.770Z,100.00
2022-08-17T22:45:29.709Z,100.00
2022-08-17T22:47:59.907Z,100.00
2022-08-17T22:50:30.957Z,100.00
2022-08-17T22:53:19.311Z,100.00
2022-08-17T22:56:09.320Z,100.00
2022-08-17T22:59:02.376Z,100.00
2022-08-17T23:06:58.932Z,100.00
2022-08-17T23:09:26.680Z,100.00
2022-08-17T23:11:58.708Z,100.00
2022-08-17T23:14:31.299Z,100.00
2022-08-17T23:17:00.675Z,100.00
2022-08-17T23:19:31.353Z,100.00
2022-08-17T23:22:05.029Z,100.00
2022-08-17T23:24:45.021Z,100.00
2022-08-17T23:27:13.153Z,100.00
2022-08-17T23:29:41.944Z,100.00
2022-08-17T23:32:14.620Z,100.00
2022-08-17T23:34:45.211Z,100.00
2022-08-17T23:37:15.120Z,100.00
2022-08-17T23:39:44.981Z,100.00
2022-08-17T23:42:16.151Z,100.00
2022-08-17T23:44:44.068Z,100.00
2022-08-17T23:47:12.337Z,100.00
2022-08-17T23:49:40.516Z,100.00
2022-08-17T23:52:12.570Z,100.00
2022-08-17T23:54:46.731Z,100.00
2022-08-17T23:57:16.491Z,100.00
2022-08-17T23:59:44.886Z,100.00
